sensor_id;sensor_type;location;lat;lon;timestamp;temperature;humidity
7588;DHT22;3835;48.850;8.938;2022-09-09T00:00:49;14.50;99.90
7588;DHT22;3835;48.850;8.938;2022-09-09T00:03:24;14.50;99.90
7588;DHT22;3835;48.850;8.938;2022-09-09T00:05:59;14.50;99.90
7588;DHT22;3835;48.850;8.938;2022-09-09T00:08:38;14.60;99.90
7588;DHT22;3835;48.850;8.938;2022-09-09T00:11:12;14.50;99.90
7588;DHT22;3835;48.850;8.938;2022-09-09T00:13:46;14.60;99.90
7588;DHT22;3835;48.850;8.938;2022-09-09T00:16:16;14.50;99.90
7588;DHT22;3835;48.850;8.938;2022-09-09T00:18:52;14.50;99.90
7588;DHT22;3835;48.850;8.938;2022-09-09T00:21:23;14.60;99.90
7588;DHT22;3835;48.850;8.938;2022-09-09T00:23:53;14.60;99.90
7588;DHT22;3835;48.850;8.938;2022-09-09T00:26:26;14.60;99.90
7588;DHT22;3835;48.850;8.938;2022-09-09T00:29:02;14.60;99.90
7588;DHT22;3835;48.850;8.938;2022-09-09T00:31:31;14.60;99.90
7588;DHT22;3835;48.850;8.938;2022-09-09T00:34:05;14.70;99.90
7588;DHT22;3835;48.850;8.938;2022-09-09T00:36:36;14.70;99.90
7588;DHT22;3835;48.850;8.938;2022-09-09T00:39:04;14.70;99.90
7588;DHT22;3835;48.850;8.938;2022-09-09T00:41:44;14.70;99.90
7588;DHT22;3835;48.850;8.938;2022-09-09T00:44:25;14.70;99.90
7588;DHT22;3835;48.850;8.938;2022-09-09T00:47:03;14.70;99.90
7588;DHT22;3835;48.850;8.938;2022-09-09T00:49:43;14.70;99.90
7588;DHT22;3835;48.850;8.938;2022-09-09T00:52:23;14.70;99.90
7588;DHT22;3835;48.850;8.938;2022-09-09T00:54:56;14.70;99.90
7588;DHT22;3835;48.850;8.938;2022-09-09T00:57:28;14.70;99.90
7588;DHT22;3835;48.850;8.938;2022-09-09T01:00:15;14.70;99.90
7588;DHT22;3835;48.850;8.938;2022-09-09T01:02:53;14.70;99.90
7588;DHT22;3835;48.850;8.938;2022-09-09T01:05:33;14.70;99.90
7588;DHT22;3835;48.850;8.938;2022-09-09T01:08:02;14.70;99.90
7588;DHT22;3835;48.850;8.938;2022-09-09T01:10:41;14.70;99.90
7588;DHT22;3835;48.850;8.938;2022-09-09T01:13:15;14.70;99.90
7588;DHT22;3835;48.850;8.938;2022-09-09T01:15:46;14.70;99.90
7588;DHT22;3835;48.850;8.938;2022-09-09T01:18:16;14.70;99.90
7588;DHT22;3835;48.850;8.938;2022-09-09T01:20:51;14.70;99.90
7588;DHT22;3835;48.850;8.938;2022-09-09T01:26:26;14.70;99.90
7588;DHT22;3835;48.850;8.938;2022-09-09T01:28:54;14.70;99.90
7588;DHT22;3835;48.850;8.938;2022-09-09T01:31:26;14.70;99.90
7588;DHT22;3835;48.850;8.938;2022-09-09T01:33:53;14.70;99.90
7588;DHT22;3835;48.850;8.938;2022-09-09T01:36:26;14.60;99.90
7588;DHT22;3835;48.850;8.938;2022-09-09T01:38:55;14.70;99.90
7588;DHT22;3835;48.850;8.938;2022-09-09T01:41:22;14.70;99.90
7588;DHT22;3835;48.850;8.938;2022-09-09T01:43:50;14.70;99.90
7588;DHT22;3835;48.850;8.938;2022-09-09T01:46:18;14.70;99.90
7588;DHT22;3835;48.850;8.938;2022-09-09T01:48:48;14.70;99.90
7588;DHT22;3835;48.850;8.938;2022-09-09T01:51:14;14.70;99.90
7588;DHT22;3835;48.850;8.938;2022-09-09T01:53:41;14.70;99.90
7588;DHT22;3835;48.850;8.938;2022-09-09T01:56:19;14.80;99.90
7588;DHT22;3835;48.850;8.938;2022-09-09T01:59:03;14.80;99.90
7588;DHT22;3835;48.850;8.938;2022-09-09T02:01:42;14.90;99.90
7588;DHT22;3835;48.850;8.938;2022-09-09T02:04:29;15.10;99.90
7588;DHT22;3835;48.850;8.938;2022-09-09T02:07:01;15.10;99.90
7588;DHT22;3835;48.850;8.938;2022-09-09T02:09:30;15.10;99.90
7588;DHT22;3835;48.850;8.938;2022-09-09T02:12:02;15.10;99.90
7588;DHT22;3835;48.850;8.938;2022-09-09T02:14:37;14.90;99.90
7588;DHT22;3835;48.850;8.938;2022-09-09T02:17:09;14.80;99.90
7588;DHT22;3835;48.850;8.938;2022-09-09T02:19:39;14.70;99.90
7588;DHT22;3835;48.850;8.938;2022-09-09T02:22:07;14.60;99.90
7588;DHT22;3835;48.850;8.938;2022-09-09T02:24:37;14.50;99.90
7588;DHT22;3835;48.850;8.938;2022-09-09T02:27:06;14.40;99.90
7588;DHT22;3835;48.850;8.938;2022-09-09T02:29:39;14.30;99.90
7588;DHT22;3835;48.850;8.938;2022-09-09T02:32:09;14.30;99.90
7588;DHT22;3835;48.850;8.938;2022-09-09T02:34:40;14.20;99.90
7588;DHT22;3835;48.850;8.938;2022-09-09T02:37:09;14.10;99.90
7588;DHT22;3835;48.850;8.938;2022-09-09T02:39:37;14.00;99.90
7588;DHT22;3835;48.850;8.938;2022-09-09T02:42:04;14.00;99.90
7588;DHT22;3835;48.850;8.938;2022-09-09T02:44:33;14.00;99.90
7588;DHT22;3835;48.850;8.938;2022-09-09T02:47:13;14.00;99.90
7588;DHT22;3835;48.850;8.938;2022-09-09T02:49:50;14.00;99.90
7588;DHT22;3835;48.850;8.938;2022-09-09T02:52:26;14.00;99.90
7588;DHT22;3835;48.850;8.938;2022-09-09T02:55:03;14.00;99.90
7588;DHT22;3835;48.850;8.938;2022-09-09T02:57:31;14.00;99.90
7588;DHT22;3835;48.850;8.938;2022-09-09T02:59:59;13.90;99.90
7588;DHT22;3835;48.850;8.938;2022-09-09T03:02:28;13.90;99.90
7588;DHT22;3835;48.850;8.938;2022-09-09T03:04:55;13.90;99.90
7588;DHT22;3835;48.850;8.938;2022-09-09T03:07:23;13.90;99.90
7588;DHT22;3835;48.850;8.938;2022-09-09T03:09:50;13.80;99.90
7588;DHT22;3835;48.850;8.938;2022-09-09T03:12:18;13.80;99.90
7588;DHT22;3835;48.850;8.938;2022-09-09T03:14:44;13.70;99.90
7588;DHT22;3835;48.850;8.938;2022-09-09T03:17:12;13.70;99.90
7588;DHT22;3835;48.850;8.938;2022-09-09T03:19:40;13.70;99.90
7588;DHT22;3835;48.850;8.938;2022-09-09T03:22:08;13.70;99.90
7588;DHT22;3835;48.850;8.938;2022-09-09T03:24:35;13.60;99.90
7588;DHT22;3835;48.850;8.938;2022-09-09T03:27:02;13.60;99.90
7588;DHT22;3835;48.850;8.938;2022-09-09T03:29:29;13.60;99.90
7588;DHT22;3835;48.850;8.938;2022-09-09T03:31:56;13.60;99.90
7588;DHT22;3835;48.850;8.938;2022-09-09T03:34:22;13.60;99.90
7588;DHT22;3835;48.850;8.938;2022-09-09T03:36:51;13.60;99.90
7588;DHT22;3835;48.850;8.938;2022-09-09T03:39:17;13.60;99.90
7588;DHT22;3835;48.850;8.938;2022-09-09T03:41:44;13.60;99.90
7588;DHT22;3835;48.850;8.938;2022-09-09T03:44:13;13.50;99.90
7588;DHT22;3835;48.850;8.938;2022-09-09T03:46:40;13.50;99.90
7588;DHT22;3835;48.850;8.938;2022-09-09T03:49:07;13.50;99.90
7588;DHT22;3835;48.850;8.938;2022-09-09T03:51:35;13.50;99.90
7588;DHT22;3835;48.850;8.938;2022-09-09T03:54:05;13.50;99.90
7588;DHT22;3835;48.850;8.938;2022-09-09T03:56:33;13.50;99.90
7588;DHT22;3835;48.850;8.938;2022-09-09T03:59:00;13.50;99.90
7588;DHT22;3835;48.850;8.938;2022-09-09T04:01:28;13.50;99.90
7588;DHT22;3835;48.850;8.938;2022-09-09T04:03:55;13.40;99.90
7588;DHT22;3835;48.850;8.938;2022-09-09T04:06:24;13.40;99.90
7588;DHT22;3835;48.850;8.938;2022-09-09T04:08:51;13.40;99.90
7588;DHT22;3835;48.850;8.938;2022-09-09T04:11:19;13.40;99.90
7588;DHT22;3835;48.850;8.938;2022-09-09T04:13:47;13.40;99.90
7588;DHT22;3835;48.850;8.938;2022-09-09T04:16:14;13.40;99.90
7588;DHT22;3835;48.850;8.938;2022-09-09T04:18:41;13.50;99.90
7588;DHT22;3835;48.850;8.938;2022-09-09T04:21:09;13.60;99.90
7588;DHT22;3835;48.850;8.938;2022-09-09T04:23:36;13.60;99.90
7588;DHT22;3835;48.850;8.938;2022-09-09T04:26:03;13.70;99.90
7588;DHT22;3835;48.850;8.938;2022-09-09T04:28:33;13.80;99.90
7588;DHT22;3835;48.850;8.938;2022-09-09T04:31:05;13.90;99.90
7588;DHT22;3835;48.850;8.938;2022-09-09T04:33:32;13.90;99.90
7588;DHT22;3835;48.850;8.938;2022-09-09T04:35:58;13.90;99.90
7588;DHT22;3835;48.850;8.938;2022-09-09T04:38:25;13.90;99.90
7588;DHT22;3835;48.850;8.938;2022-09-09T04:40:52;13.90;99.90
7588;DHT22;3835;48.850;8.938;2022-09-09T04:43:19;13.80;99.90
7588;DHT22;3835;48.850;8.938;2022-09-09T04:45:50;13.70;99.90
7588;DHT22;3835;48.850;8.938;2022-09-09T04:48:17;13.70;99.90
7588;DHT22;3835;48.850;8.938;2022-09-09T04:50:44;13.60;99.90
7588;DHT22;3835;48.850;8.938;2022-09-09T04:53:19;13.60;99.90
7588;DHT22;3835;48.850;8.938;2022-09-09T04:55:47;13.60;99.90
7588;DHT22;3835;48.850;8.938;2022-09-09T04:58:14;13.60;99.90
7588;DHT22;3835;48.850;8.938;2022-09-09T05:00:41;13.60;99.90
7588;DHT22;3835;48.850;8.938;2022-09-09T05:03:09;13.60;99.90
7588;DHT22;3835;48.850;8.938;2022-09-09T05:05:37;13.60;99.90
7588;DHT22;3835;48.850;8.938;2022-09-09T05:08:06;13.70;99.90
7588;DHT22;3835;48.850;8.938;2022-09-09T05:10:33;13.70;99.90
7588;DHT22;3835;48.850;8.938;2022-09-09T05:13:01;13.70;99.90
7588;DHT22;3835;48.850;8.938;2022-09-09T05:15:28;13.80;99.90
7588;DHT22;3835;48.850;8.938;2022-09-09T05:17:57;13.80;99.90
7588;DHT22;3835;48.850;8.938;2022-09-09T05:20:25;13.90;99.90
7588;DHT22;3835;48.850;8.938;2022-09-09T05:22:53;13.90;99.90
7588;DHT22;3835;48.850;8.938;2022-09-09T05:25:20;14.00;99.90
7588;DHT22;3835;48.850;8.938;2022-09-09T05:27:47;14.00;99.90
7588;DHT22;3835;48.850;8.938;2022-09-09T05:30:15;14.10;99.90
7588;DHT22;3835;48.850;8.938;2022-09-09T05:32:42;14.20;99.90
7588;DHT22;3835;48.850;8.938;2022-09-09T05:35:08;14.30;99.90
7588;DHT22;3835;48.850;8.938;2022-09-09T05:37:36;14.30;99.90
7588;DHT22;3835;48.850;8.938;2022-09-09T05:40:04;14.40;99.90
7588;DHT22;3835;48.850;8.938;2022-09-09T05:42:31;14.40;99.90
7588;DHT22;3835;48.850;8.938;2022-09-09T05:44:58;14.40;99.90
7588;DHT22;3835;48.850;8.938;2022-09-09T05:47:25;14.50;99.90
7588;DHT22;3835;48.850;8.938;2022-09-09T05:49:53;14.60;99.90
7588;DHT22;3835;48.850;8.938;2022-09-09T05:52:20;14.70;99.90
7588;DHT22;3835;48.850;8.938;2022-09-09T05:54:49;14.70;99.90
7588;DHT22;3835;48.850;8.938;2022-09-09T05:57:16;14.70;99.90
7588;DHT22;3835;48.850;8.938;2022-09-09T05:59:44;14.80;99.90
7588;DHT22;3835;48.850;8.938;2022-09-09T06:02:11;14.80;99.90
7588;DHT22;3835;48.850;8.938;2022-09-09T06:04:39;14.90;99.90
7588;DHT22;3835;48.850;8.938;2022-09-09T06:07:05;14.90;99.90
7588;DHT22;3835;48.850;8.938;2022-09-09T06:09:32;15.00;99.90
7588;DHT22;3835;48.850;8.938;2022-09-09T06:12:00;15.00;99.90
7588;DHT22;3835;48.850;8.938;2022-09-09T06:14:33;15.00;99.90
7588;DHT22;3835;48.850;8.938;2022-09-09T06:17:00;15.00;99.90
7588;DHT22;3835;48.850;8.938;2022-09-09T06:19:27;14.90;99.90
7588;DHT22;3835;48.850;8.938;2022-09-09T06:21:56;14.90;99.90
7588;DHT22;3835;48.850;8.938;2022-09-09T06:24:22;14.90;99.90
7588;DHT22;3835;48.850;8.938;2022-09-09T06:26:49;14.90;99.90
7588;DHT22;3835;48.850;8.938;2022-09-09T06:29:17;14.90;99.90
7588;DHT22;3835;48.850;8.938;2022-09-09T06:31:44;14.90;99.90
7588;DHT22;3835;48.850;8.938;2022-09-09T06:34:11;14.90;99.90
7588;DHT22;3835;48.850;8.938;2022-09-09T06:36:38;14.80;99.90
7588;DHT22;3835;48.850;8.938;2022-09-09T06:39:06;14.90;99.90
7588;DHT22;3835;48.850;8.938;2022-09-09T06:41:34;15.00;99.90
7588;DHT22;3835;48.850;8.938;2022-09-09T06:44:02;15.40;99.90
7588;DHT22;3835;48.850;8.938;2022-09-09T06:46:31;15.80;99.90
7588;DHT22;3835;48.850;8.938;2022-09-09T06:48:59;16.30;99.90
7588;DHT22;3835;48.850;8.938;2022-09-09T06:51:26;16.60;99.90
7588;DHT22;3835;48.850;8.938;2022-09-09T06:53:55;16.80;99.90
7588;DHT22;3835;48.850;8.938;2022-09-09T06:56:23;16.90;99.90
7588;DHT22;3835;48.850;8.938;2022-09-09T06:58:52;16.90;99.90
7588;DHT22;3835;48.850;8.938;2022-09-09T07:01:21;16.90;99.90
7588;DHT22;3835;48.850;8.938;2022-09-09T07:03:51;17.00;99.90
7588;DHT22;3835;48.850;8.938;2022-09-09T07:06:21;17.10;99.90
7588;DHT22;3835;48.850;8.938;2022-09-09T07:08:49;17.10;99.90
7588;DHT22;3835;48.850;8.938;2022-09-09T07:11:17;17.20;99.90
7588;DHT22;3835;48.850;8.938;2022-09-09T07:13:44;17.20;99.90
7588;DHT22;3835;48.850;8.938;2022-09-09T07:16:12;17.30;99.90
7588;DHT22;3835;48.850;8.938;2022-09-09T07:18:40;17.40;99.90
7588;DHT22;3835;48.850;8.938;2022-09-09T07:21:09;17.50;99.90
7588;DHT22;3835;48.850;8.938;2022-09-09T07:23:37;17.60;99.90
7588;DHT22;3835;48.850;8.938;2022-09-09T07:26:08;17.70;99.90
7588;DHT22;3835;48.850;8.938;2022-09-09T07:28:35;17.80;99.90
7588;DHT22;3835;48.850;8.938;2022-09-09T07:31:02;17.80;99.90
7588;DHT22;3835;48.850;8.938;2022-09-09T07:33:30;17.80;99.90
7588;DHT22;3835;48.850;8.938;2022-09-09T07:36:03;17.80;99.90
7588;DHT22;3835;48.850;8.938;2022-09-09T07:38:32;17.90;99.90
7588;DHT22;3835;48.850;8.938;2022-09-09T07:41:04;18.10;99.90
7588;DHT22;3835;48.850;8.938;2022-09-09T07:43:32;18.60;99.90
7588;DHT22;3835;48.850;8.938;2022-09-09T07:46:00;19.00;99.90
7588;DHT22;3835;48.850;8.938;2022-09-09T07:48:27;19.40;99.90
7588;DHT22;3835;48.850;8.938;2022-09-09T07:51:07;19.50;99.90
7588;DHT22;3835;48.850;8.938;2022-09-09T07:53:35;19.40;99.90
7588;DHT22;3835;48.850;8.938;2022-09-09T07:56:05;19.60;99.90
7588;DHT22;3835;48.850;8.938;2022-09-09T07:58:32;19.70;99.90
7588;DHT22;3835;48.850;8.938;2022-09-09T08:00:59;19.40;99.90
7588;DHT22;3835;48.850;8.938;2022-09-09T08:03:26;19.30;99.90
7588;DHT22;3835;48.850;8.938;2022-09-09T08:05:53;19.40;99.90
7588;DHT22;3835;48.850;8.938;2022-09-09T08:08:26;19.40;99.90
7588;DHT22;3835;48.850;8.938;2022-09-09T08:11:01;19.30;99.90
7588;DHT22;3835;48.850;8.938;2022-09-09T08:13:29;19.40;99.90
7588;DHT22;3835;48.850;8.938;2022-09-09T08:16:04;19.50;99.90
7588;DHT22;3835;48.850;8.938;2022-09-09T08:18:31;19.60;99.90
7588;DHT22;3835;48.850;8.938;2022-09-09T08:20:57;19.50;99.90
7588;DHT22;3835;48.850;8.938;2022-09-09T08:23:27;19.50;99.90
7588;DHT22;3835;48.850;8.938;2022-09-09T08:25:55;19.60;99.90
7588;DHT22;3835;48.850;8.938;2022-09-09T08:28:22;19.90;99.90
7588;DHT22;3835;48.850;8.938;2022-09-09T08:30:49;20.10;99.90
7588;DHT22;3835;48.850;8.938;2022-09-09T08:33:18;20.20;99.90
7588;DHT22;3835;48.850;8.938;2022-09-09T08:35:50;20.20;99.90
7588;DHT22;3835;48.850;8.938;2022-09-09T08:38:17;20.10;99.90
7588;DHT22;3835;48.850;8.938;2022-09-09T08:40:48;20.10;99.90
7588;DHT22;3835;48.850;8.938;2022-09-09T08:43:20;20.50;99.90
7588;DHT22;3835;48.850;8.938;2022-09-09T08:45:52;20.60;99.90
7588;DHT22;3835;48.850;8.938;2022-09-09T08:48:37;20.80;99.90
7588;DHT22;3835;48.850;8.938;2022-09-09T08:51:07;20.70;99.90
7588;DHT22;3835;48.850;8.938;2022-09-09T08:53:38;20.50;99.90
7588;DHT22;3835;48.850;8.938;2022-09-09T08:56:11;20.20;99.90
7588;DHT22;3835;48.850;8.938;2022-09-09T08:58:45;20.20;99.90
7588;DHT22;3835;48.850;8.938;2022-09-09T09:01:41;20.30;99.90
7588;DHT22;3835;48.850;8.938;2022-09-09T09:04:21;20.40;99.90
7588;DHT22;3835;48.850;8.938;2022-09-09T09:07:02;20.60;99.90
7588;DHT22;3835;48.850;8.938;2022-09-09T09:09:38;20.70;99.90
7588;DHT22;3835;48.850;8.938;2022-09-09T09:12:15;21.00;99.90
7588;DHT22;3835;48.850;8.938;2022-09-09T09:14:46;21.20;99.90
7588;DHT22;3835;48.850;8.938;2022-09-09T09:17:15;21.00;99.90
7588;DHT22;3835;48.850;8.938;2022-09-09T09:19:44;20.70;99.90
7588;DHT22;3835;48.850;8.938;2022-09-09T09:22:17;20.40;99.90
7588;DHT22;3835;48.850;8.938;2022-09-09T09:24:51;20.50;99.90
7588;DHT22;3835;48.850;8.938;2022-09-09T09:27:25;20.60;99.90
7588;DHT22;3835;48.850;8.938;2022-09-09T09:29:56;20.50;99.90
7588;DHT22;3835;48.850;8.938;2022-09-09T09:32:24;20.40;99.90
7588;DHT22;3835;48.850;8.938;2022-09-09T09:34:55;20.60;99.90
7588;DHT22;3835;48.850;8.938;2022-09-09T09:37:26;20.80;99.90
7588;DHT22;3835;48.850;8.938;2022-09-09T09:39:53;20.90;99.90
7588;DHT22;3835;48.850;8.938;2022-09-09T09:42:20;21.20;99.90
7588;DHT22;3835;48.850;8.938;2022-09-09T09:44:47;21.50;99.90
7588;DHT22;3835;48.850;8.938;2022-09-09T09:47:17;21.70;99.90
7588;DHT22;3835;48.850;8.938;2022-09-09T09:49:51;22.00;99.90
7588;DHT22;3835;48.850;8.938;2022-09-09T09:52:22;22.00;99.90
7588;DHT22;3835;48.850;8.938;2022-09-09T09:54:50;21.90;99.90
7588;DHT22;3835;48.850;8.938;2022-09-09T09:57:18;21.70;99.90
7588;DHT22;3835;48.850;8.938;2022-09-09T09:59:49;21.60;99.90
7588;DHT22;3835;48.850;8.938;2022-09-09T10:02:19;21.40;99.90
7588;DHT22;3835;48.850;8.938;2022-09-09T10:04:48;21.40;99.90
7588;DHT22;3835;48.850;8.938;2022-09-09T10:07:18;21.60;99.90
7588;DHT22;3835;48.850;8.938;2022-09-09T10:09:48;21.20;99.90
7588;DHT22;3835;48.850;8.938;2022-09-09T10:12:24;21.10;99.90
7588;DHT22;3835;48.850;8.938;2022-09-09T10:14:58;20.90;99.90
7588;DHT22;3835;48.850;8.938;2022-09-09T10:17:35;20.70;99.90
7588;DHT22;3835;48.850;8.938;2022-09-09T10:20:17;21.00;99.90
7588;DHT22;3835;48.850;8.938;2022-09-09T10:22:51;21.10;99.90
7588;DHT22;3835;48.850;8.938;2022-09-09T10:25:40;21.10;99.90
7588;DHT22;3835;48.850;8.938;2022-09-09T10:28:26;20.90;99.90
7588;DHT22;3835;48.850;8.938;2022-09-09T10:31:03;20.70;99.90
7588;DHT22;3835;48.850;8.938;2022-09-09T10:33:42;20.40;99.90
7588;DHT22;3835;48.850;8.938;2022-09-09T10:36:17;20.30;99.90
7588;DHT22;3835;48.850;8.938;2022-09-09T10:38:46;20.30;99.90
7588;DHT22;3835;48.850;8.938;2022-09-09T10:41:18;20.40;99.90
7588;DHT22;3835;48.850;8.938;2022-09-09T10:44:02;20.60;99.90
7588;DHT22;3835;48.850;8.938;2022-09-09T10:46:42;20.90;99.90
7588;DHT22;3835;48.850;8.938;2022-09-09T10:49:20;21.30;99.90
7588;DHT22;3835;48.850;8.938;2022-09-09T10:51:53;21.60;99.90
7588;DHT22;3835;48.850;8.938;2022-09-09T10:54:33;21.20;99.90
7588;DHT22;3835;48.850;8.938;2022-09-09T10:57:06;20.90;99.90
7588;DHT22;3835;48.850;8.938;2022-09-09T10:59:40;20.40;99.90
7588;DHT22;3835;48.850;8.938;2022-09-09T11:02:13;19.80;99.90
7588;DHT22;3835;48.850;8.938;2022-09-09T11:04:47;19.60;99.90
7588;DHT22;3835;48.850;8.938;2022-09-09T11:07:25;19.10;99.90
7588;DHT22;3835;48.850;8.938;2022-09-09T11:09:56;18.80;99.90
7588;DHT22;3835;48.850;8.938;2022-09-09T11:12:27;18.50;99.90
7588;DHT22;3835;48.850;8.938;2022-09-09T11:14:59;18.40;99.90
7588;DHT22;3835;48.850;8.938;2022-09-09T11:17:35;18.30;99.90
7588;DHT22;3835;48.850;8.938;2022-09-09T11:20:11;18.20;99.90
7588;DHT22;3835;48.850;8.938;2022-09-09T11:22:44;18.20;99.90
7588;DHT22;3835;48.850;8.938;2022-09-09T11:25:16;18.10;99.90
7588;DHT22;3835;48.850;8.938;2022-09-09T11:28:01;18.30;99.90
7588;DHT22;3835;48.850;8.938;2022-09-09T11:30:38;18.50;99.90
7588;DHT22;3835;48.850;8.938;2022-09-09T11:36:34;18.90;99.90
7588;DHT22;3835;48.850;8.938;2022-09-09T11:39:22;18.80;99.90
7588;DHT22;3835;48.850;8.938;2022-09-09T11:41:52;18.80;99.90
7588;DHT22;3835;48.850;8.938;2022-09-09T11:44:26;19.00;99.90
7588;DHT22;3835;48.850;8.938;2022-09-09T11:46:54;19.40;99.90
7588;DHT22;3835;48.850;8.938;2022-09-09T11:49:29;19.80;99.90
7588;DHT22;3835;48.850;8.938;2022-09-09T11:51:58;20.40;99.90
7588;DHT22;3835;48.850;8.938;2022-09-09T11:54:30;20.60;99.90
7588;DHT22;3835;48.850;8.938;2022-09-09T11:56:57;20.80;99.90
7588;DHT22;3835;48.850;8.938;2022-09-09T11:59:27;21.20;99.90
7588;DHT22;3835;48.850;8.938;2022-09-09T12:01:55;21.30;99.90
7588;DHT22;3835;48.850;8.938;2022-09-09T12:04:32;21.40;99.90
7588;DHT22;3835;48.850;8.938;2022-09-09T12:07:03;21.40;99.90
7588;DHT22;3835;48.850;8.938;2022-09-09T12:09:38;21.40;99.90
7588;DHT22;3835;48.850;8.938;2022-09-09T12:12:28;21.50;99.90
7588;DHT22;3835;48.850;8.938;2022-09-09T12:15:17;21.60;99.90
7588;DHT22;3835;48.850;8.938;2022-09-09T12:17:48;21.40;99.90
7588;DHT22;3835;48.850;8.938;2022-09-09T12:20:17;21.40;99.90
7588;DHT22;3835;48.850;8.938;2022-09-09T12:22:58;21.30;99.90
7588;DHT22;3835;48.850;8.938;2022-09-09T12:25:35;21.20;99.90
7588;DHT22;3835;48.850;8.938;2022-09-09T12:28:11;21.00;99.90
7588;DHT22;3835;48.850;8.938;2022-09-09T12:30:45;21.00;99.90
7588;DHT22;3835;48.850;8.938;2022-09-09T12:33:18;20.90;99.90
7588;DHT22;3835;48.850;8.938;2022-09-09T12:35:47;21.10;99.90
7588;DHT22;3835;48.850;8.938;2022-09-09T12:38:23;21.00;99.90
7588;DHT22;3835;48.850;8.938;2022-09-09T12:40:56;20.90;99.90
7588;DHT22;3835;48.850;8.938;2022-09-09T12:43:24;21.00;99.90
7588;DHT22;3835;48.850;8.938;2022-09-09T12:45:53;21.00;99.90
7588;DHT22;3835;48.850;8.938;2022-09-09T12:48:28;21.00;99.90
7588;DHT22;3835;48.850;8.938;2022-09-09T12:50:57;21.20;99.90
7588;DHT22;3835;48.850;8.938;2022-09-09T12:53:28;21.10;99.90
7588;DHT22;3835;48.850;8.938;2022-09-09T12:55:57;21.20;99.90
7588;DHT22;3835;48.850;8.938;2022-09-09T12:58:25;21.30;99.90
7588;DHT22;3835;48.850;8.938;2022-09-09T13:00:55;21.20;99.90
7588;DHT22;3835;48.850;8.938;2022-09-09T13:03:22;21.20;99.90
7588;DHT22;3835;48.850;8.938;2022-09-09T13:05:51;21.20;99.90
7588;DHT22;3835;48.850;8.938;2022-09-09T13:08:19;21.20;99.90
7588;DHT22;3835;48.850;8.938;2022-09-09T13:10:50;21.30;99.90
7588;DHT22;3835;48.850;8.938;2022-09-09T13:13:21;21.50;99.90
7588;DHT22;3835;48.850;8.938;2022-09-09T13:15:50;21.60;99.90
7588;DHT22;3835;48.850;8.938;2022-09-09T13:18:20;21.80;99.90
7588;DHT22;3835;48.850;8.938;2022-09-09T13:20:49;21.90;99.90
7588;DHT22;3835;48.850;8.938;2022-09-09T13:23:18;21.70;99.90
7588;DHT22;3835;48.850;8.938;2022-09-09T13:25:55;21.50;99.90
7588;DHT22;3835;48.850;8.938;2022-09-09T13:28:24;21.30;99.90
7588;DHT22;3835;48.850;8.938;2022-09-09T13:30:56;21.00;99.90
7588;DHT22;3835;48.850;8.938;2022-09-09T13:33:30;20.70;99.90
7588;DHT22;3835;48.850;8.938;2022-09-09T13:35:58;20.50;99.90
7588;DHT22;3835;48.850;8.938;2022-09-09T13:38:27;20.60;99.90
7588;DHT22;3835;48.850;8.938;2022-09-09T13:40:57;20.60;99.90
7588;DHT22;3835;48.850;8.938;2022-09-09T13:43:27;20.40;99.90
7588;DHT22;3835;48.850;8.938;2022-09-09T13:45:56;20.30;99.90
7588;DHT22;3835;48.850;8.938;2022-09-09T13:48:24;20.30;99.90
7588;DHT22;3835;48.850;8.938;2022-09-09T13:50:56;20.20;99.90
7588;DHT22;3835;48.850;8.938;2022-09-09T13:53:23;20.10;99.90
7588;DHT22;3835;48.850;8.938;2022-09-09T13:55:50;20.10;99.90
7588;DHT22;3835;48.850;8.938;2022-09-09T13:58:20;20.00;99.90
7588;DHT22;3835;48.850;8.938;2022-09-09T14:00:48;20.20;99.90
7588;DHT22;3835;48.850;8.938;2022-09-09T14:03:15;20.60;99.90
7588;DHT22;3835;48.850;8.938;2022-09-09T14:05:43;20.70;99.90
7588;DHT22;3835;48.850;8.938;2022-09-09T14:08:16;20.70;99.90
7588;DHT22;3835;48.850;8.938;2022-09-09T14:10:46;20.90;99.90
7588;DHT22;3835;48.850;8.938;2022-09-09T14:13:13;20.90;99.90
7588;DHT22;3835;48.850;8.938;2022-09-09T14:15:42;20.90;99.90
7588;DHT22;3835;48.850;8.938;2022-09-09T14:18:11;20.80;99.90
7588;DHT22;3835;48.850;8.938;2022-09-09T14:20:37;21.00;99.90
7588;DHT22;3835;48.850;8.938;2022-09-09T14:23:04;21.10;99.90
7588;DHT22;3835;48.850;8.938;2022-09-09T14:25:32;21.20;99.90
7588;DHT22;3835;48.850;8.938;2022-09-09T14:27:58;21.20;99.90
7588;DHT22;3835;48.850;8.938;2022-09-09T14:30:25;21.20;99.90
7588;DHT22;3835;48.850;8.938;2022-09-09T14:32:54;21.30;99.90
7588;DHT22;3835;48.850;8.938;2022-09-09T14:35:20;21.50;99.90
7588;DHT22;3835;48.850;8.938;2022-09-09T14:37:47;21.60;99.90
7588;DHT22;3835;48.850;8.938;2022-09-09T14:40:14;21.20;99.90
7588;DHT22;3835;48.850;8.938;2022-09-09T14:42:42;20.90;99.90
7588;DHT22;3835;48.850;8.938;2022-09-09T14:45:09;20.80;99.90
7588;DHT22;3835;48.850;8.938;2022-09-09T14:47:36;20.70;99.90
7588;DHT22;3835;48.850;8.938;2022-09-09T14:50:06;20.70;99.90
7588;DHT22;3835;48.850;8.938;2022-09-09T14:52:33;20.70;99.90
7588;DHT22;3835;48.850;8.938;2022-09-09T14:55:00;20.80;99.90
7588;DHT22;3835;48.850;8.938;2022-09-09T14:57:27;20.80;99.90
7588;DHT22;3835;48.850;8.938;2022-09-09T14:59:54;20.70;99.90
7588;DHT22;3835;48.850;8.938;2022-09-09T15:02:21;20.80;99.90
7588;DHT22;3835;48.850;8.938;2022-09-09T15:04:47;20.80;99.90
7588;DHT22;3835;48.850;8.938;2022-09-09T15:07:16;20.80;99.90
7588;DHT22;3835;48.850;8.938;2022-09-09T15:09:45;20.70;99.90
7588;DHT22;3835;48.850;8.938;2022-09-09T15:12:13;20.80;99.90
7588;DHT22;3835;48.850;8.938;2022-09-09T15:14:40;20.80;99.90
7588;DHT22;3835;48.850;8.938;2022-09-09T15:17:08;20.60;99.90
7588;DHT22;3835;48.850;8.938;2022-09-09T15:19:34;20.60;99.90
7588;DHT22;3835;48.850;8.938;2022-09-09T15:22:02;20.70;99.90
7588;DHT22;3835;48.850;8.938;2022-09-09T15:24:32;20.80;99.90
7588;DHT22;3835;48.850;8.938;2022-09-09T15:26:59;20.70;99.90
7588;DHT22;3835;48.850;8.938;2022-09-09T15:29:25;20.80;99.90
7588;DHT22;3835;48.850;8.938;2022-09-09T15:31:53;20.90;99.90
7588;DHT22;3835;48.850;8.938;2022-09-09T15:34:20;20.80;99.90
7588;DHT22;3835;48.850;8.938;2022-09-09T15:36:48;20.60;99.90
7588;DHT22;3835;48.850;8.938;2022-09-09T15:39:16;20.30;99.90
7588;DHT22;3835;48.850;8.938;2022-09-09T15:41:45;20.10;99.90
7588;DHT22;3835;48.850;8.938;2022-09-09T15:44:13;19.80;99.90
7588;DHT22;3835;48.850;8.938;2022-09-09T15:46:42;19.70;99.90
7588;DHT22;3835;48.850;8.938;2022-09-09T15:49:12;19.50;99.90
7588;DHT22;3835;48.850;8.938;2022-09-09T15:51:40;19.40;99.90
7588;DHT22;3835;48.850;8.938;2022-09-09T15:54:08;19.40;99.90
7588;DHT22;3835;48.850;8.938;2022-09-09T15:56:35;19.30;99.90
7588;DHT22;3835;48.850;8.938;2022-09-09T15:59:03;19.30;99.90
7588;DHT22;3835;48.850;8.938;2022-09-09T16:01:31;19.20;99.90
7588;DHT22;3835;48.850;8.938;2022-09-09T16:03:59;19.10;99.90
7588;DHT22;3835;48.850;8.938;2022-09-09T16:06:28;19.10;99.90
7588;DHT22;3835;48.850;8.938;2022-09-09T16:08:56;18.60;99.90
7588;DHT22;3835;48.850;8.938;2022-09-09T16:11:25;17.70;99.90
7588;DHT22;3835;48.850;8.938;2022-09-09T16:13:53;16.70;99.90
7588;DHT22;3835;48.850;8.938;2022-09-09T16:16:24;16.10;99.90
7588;DHT22;3835;48.850;8.938;2022-09-09T16:18:53;15.90;99.90
7588;DHT22;3835;48.850;8.938;2022-09-09T16:21:22;15.90;99.90
7588;DHT22;3835;48.850;8.938;2022-09-09T16:23:50;15.90;99.90
7588;DHT22;3835;48.850;8.938;2022-09-09T16:26:19;15.90;99.90
7588;DHT22;3835;48.850;8.938;2022-09-09T16:28:46;15.90;99.90